Time;durP1;ratioP1;P1;durP2;ratioP2;P2;SDS_P1;SDS_P2;PMS_P1;PMS_P2;Temp;Humidity;BMP_temperature;BMP_pressure;BME280_temperature;BME280_humidity;BME280_pressure;Samples;Min_cycle;Max_cycle;Signal;HPM_P1;HPM_P2
2022/04/23 00:00:09;;;;;;;0.57;0.50;;;20.70;73.10;;;;;;4032870;29;20067;-60
2022/04/23 00:02:11;;;;;;;1.35;0.68;;;20.70;73.20;;;;;;4026258;29;21002;-61
2022/04/23 00:04:13;;;;;;;2.67;0.65;;;20.70;73.20;;;;;;4030535;29;20086;-61
2022/04/23 00:06:15;;;;;;;1.15;0.50;;;20.70;73.20;;;;;;4036101;29;20051;-61
2022/04/23 00:08:18;;;;;;;1.55;0.90;;;20.70;73.20;;;;;;4029143;29;20060;-60
2022/04/23 00:10:21;;;;;;;5.65;1.08;;;20.70;73.20;;;;;;3998189;29;20067;-58
2022/04/23 00:12:23;;;;;;;;;;;20.70;73.40;;;;;;4032893;29;20056;-60
2022/04/23 00:14:26;;;;;;;1.05;0.82;;;20.80;73.50;;;;;;4031105;29;20058;-59
2022/04/23 00:16:28;;;;;;;3.20;0.70;;;20.80;73.60;;;;;;4028648;29;20977;-58
2022/04/23 00:18:31;;;;;;;3.28;1.17;;;20.80;73.50;;;;;;4035129;29;20508;-59
2022/04/23 00:20:33;;;;;;;2.35;0.65;;;20.80;73.40;;;;;;4044043;29;20467;-59
2022/04/23 00:22:37;;;;;;;5.13;0.75;;;20.90;73.50;;;;;;4025437;29;20206;-60
2022/04/23 00:24:39;;;;;;;1.88;1.02;;;20.90;73.60;;;;;;4028332;29;20055;-60
2022/04/23 00:26:42;;;;;;;2.03;0.90;;;20.90;73.60;;;;;;4036689;29;20052;-58
2022/04/23 00:28:44;;;;;;;2.03;0.70;;;20.90;73.50;;;;;;4018673;29;20060;-59
2022/04/23 00:30:47;;;;;;;5.15;0.80;;;21.00;73.60;;;;;;4032417;29;20322;-59
2022/04/23 00:32:49;;;;;;;1.30;0.80;;;21.00;73.40;;;;;;4011360;29;20083;-58
2022/04/23 00:34:51;;;;;;;2.78;1.10;;;21.00;73.70;;;;;;4036957;29;20048;-55
2022/04/23 00:36:53;;;;;;;2.25;0.57;;;21.00;73.20;;;;;;4031728;29;20238;-60
2022/04/23 00:38:56;;;;;;;2.33;0.65;;;21.10;73.30;;;;;;4031773;29;20111;-57
2022/04/23 00:40:58;;;;;;;1.83;0.63;;;21.10;73.20;;;;;;4020431;29;20055;-59
2022/04/23 00:43:01;;;;;;;8.25;0.65;;;21.10;73.20;;;;;;4031510;29;20055;-60
2022/04/23 00:45:03;;;;;;;2.95;0.60;;;21.10;73.10;;;;;;4030121;29;20064;-59
2022/04/23 00:47:06;;;;;;;3.50;0.43;;;21.10;73.80;;;;;;4036704;29;20086;-60
2022/04/23 00:49:08;;;;;;;0.98;0.52;;;21.10;73.10;;;;;;4035099;29;20048;-58
2022/04/23 00:51:12;;;;;;;1.52;0.63;;;21.10;73.10;;;;;;4030384;29;20055;-59
2022/04/23 00:53:14;;;;;;;2.50;0.68;;;21.10;73.20;;;;;;4031251;29;20059;-59
2022/04/23 00:55:18;;;;;;;3.40;0.88;;;21.10;73.20;;;;;;4023224;29;20564;-59
2022/04/23 00:57:21;;;;;;;1.75;0.50;;;21.10;73.30;;;;;;4034499;29;20055;-59
2022/04/23 00:59:23;;;;;;;0.60;0.50;;;21.10;73.30;;;;;;4031969;29;20067;-58
2022/04/23 01:01:26;;;;;;;3.27;0.57;;;21.10;73.30;;;;;;4031432;29;20063;-60
2022/04/23 01:03:30;;;;;;;4.68;0.73;;;21.20;73.20;;;;;;4000432;29;20127;-61
2022/04/23 01:05:32;;;;;;;5.38;0.50;;;21.20;73.20;;;;;;4016162;29;20845;-61
2022/04/23 01:07:36;;;;;;;1.20;0.38;;;21.20;73.20;;;;;;4033276;29;20256;-59
2022/04/23 01:09:39;;;;;;;3.63;0.95;;;21.20;73.20;;;;;;4040888;29;20047;-58
2022/04/23 01:11:41;;;;;;;1.02;0.52;;;21.20;73.20;;;;;;4041078;29;20060;-52
2022/04/23 01:13:44;;;;;;;1.27;0.65;;;21.20;73.20;;;;;;4040264;29;20090;-55
2022/04/23 01:16:00;;;;;;;0.93;0.60;;;21.20;73.10;;;;;;4044607;29;20066;-56
2022/04/23 01:18:03;;;;;;;4.13;0.73;;;21.20;72.90;;;;;;4042570;29;20521;-53
2022/04/23 01:20:10;;;;;;;0.68;0.40;;;21.20;72.60;;;;;;4049576;29;20147;-58
2022/04/23 01:22:12;;;;;;;2.47;0.68;;;21.20;72.30;;;;;;4045356;29;20059;-56
2022/04/23 01:24:16;;;;;;;7.27;1.27;;;21.20;72.00;;;;;;4037898;29;20047;-57
2022/04/23 01:26:24;;;;;;;;;;;21.20;73.00;;;;;;4021434;29;20090;-53
2022/04/23 01:28:28;;;;;;;4.60;1.08;;;21.20;73.20;;;;;;4036278;29;20225;-54
2022/04/23 01:30:30;;;;;;;4.07;0.80;;;21.30;73.20;;;;;;4054621;29;20512;-54
2022/04/23 01:32:33;;;;;;;6.38;0.90;;;21.30;73.00;;;;;;4055402;29;20051;-52
2022/04/23 01:34:35;;;;;;;4.45;0.93;;;21.30;72.70;;;;;;4049931;29;20052;-57
2022/04/23 01:36:37;;;;;;;1.70;0.60;;;21.30;72.70;;;;;;4056072;29;20043;-52
2022/04/23 01:42:19;;;;;;;4.07;0.90;;;21.30;72.30;;;;;;4058491;29;20498;-50
2022/04/23 01:44:21;;;;;;;2.72;0.82;;;21.30;72.10;;;;;;4068465;29;20142;-51
2022/04/23 01:46:59;;;;;;;1.33;0.60;;;21.30;72.00;;;;;;4064662;29;20288;-57
2022/04/23 01:49:01;;;;;;;4.35;0.55;;;21.30;71.90;;;;;;4016440;29;20048;-55
2022/04/23 01:51:03;;;;;;;1.02;0.60;;;21.30;71.80;;;;;;4008906;29;20064;-57
2022/04/23 01:53:05;;;;;;;1.60;0.88;;;21.30;71.80;;;;;;4028131;29;20056;-55
2022/04/23 01:55:08;;;;;;;1.98;1.08;;;21.30;71.80;;;;;;4002779;29;20502;-56
2022/04/23 01:57:10;;;;;;;2.87;1.13;;;21.30;71.70;;;;;;4020463;29;20165;-55
2022/04/23 01:59:12;;;;;;;2.17;1.00;;;21.30;71.60;;;;;;4028248;29;20063;-56
2022/04/23 02:01:14;;;;;;;3.10;1.00;;;21.40;71.70;;;;;;3992569;29;20126;-57
2022/04/23 02:03:17;;;;;;;2.75;1.55;;;21.40;71.60;;;;;;4010422;29;21322;-55
2022/04/23 02:05:19;;;;;;;2.67;1.63;;;21.40;71.50;;;;;;4017918;29;20424;-56
2022/04/23 02:07:21;;;;;;;2.50;1.30;;;21.40;71.40;;;;;;4016472;29;20145;-56
2022/04/23 02:09:23;;;;;;;4.53;1.63;;;21.40;71.40;;;;;;4011901;29;20051;-56
2022/04/23 02:11:26;;;;;;;2.40;1.40;;;21.40;71.30;;;;;;4014465;29;21246;-57
2022/04/23 02:13:28;;;;;;;2.53;1.73;;;21.40;71.30;;;;;;4021916;29;20111;-57
2022/04/23 02:15:30;;;;;;;2.50;1.60;;;21.40;71.20;;;;;;4011906;29;20203;-57
2022/04/23 02:17:40;;;;;;;2.50;1.80;;;21.40;71.20;;;;;;3980297;29;20060;-57
2022/04/23 02:19:42;;;;;;;4.38;1.77;;;21.40;71.20;;;;;;4012777;29;20761;-56
2022/04/23 02:21:45;;;;;;;4.50;1.83;;;21.50;71.20;;;;;;4005433;29;20115;-56
2022/04/23 02:23:47;;;;;;;2.97;1.70;;;21.40;71.10;;;;;;4014774;29;20058;-55
2022/04/23 02:25:50;;;;;;;2.88;1.63;;;21.50;71.20;;;;;;4013625;29;20501;-57
2022/04/23 02:27:52;;;;;;;2.75;1.50;;;21.40;71.00;;;;;;4022904;29;20062;-56
2022/04/23 02:29:54;;;;;;;2.25;1.27;;;21.50;71.00;;;;;;4020049;29;20142;-56
2022/04/23 02:31:57;;;;;;;2.55;1.50;;;21.50;70.90;;;;;;4014196;29;20074;-53
2022/04/23 02:33:59;;;;;;;2.47;1.48;;;21.60;70.90;;;;;;4016262;29;20063;-56
2022/04/23 02:36:01;;;;;;;2.40;1.45;;;21.60;70.80;;;;;;4021600;29;20044;-57
2022/04/23 02:38:03;;;;;;;2.70;1.40;;;21.60;70.80;;;;;;4013933;29;20896;-54
2022/04/23 02:40:10;;;;;;;2.30;1.48;;;21.60;70.80;;;;;;3996378;29;20064;-55
2022/04/23 02:42:12;;;;;;;2.83;1.35;;;21.60;70.80;;;;;;4022408;29;20063;-57
2022/04/23 02:44:15;;;;;;;2.25;1.30;;;21.60;70.70;;;;;;4024155;29;22323;-54
2022/04/23 02:46:17;;;;;;;2.45;1.50;;;21.60;70.70;;;;;;3989077;29;20088;-57
2022/04/23 02:48:19;;;;;;;2.67;1.30;;;21.60;70.70;;;;;;4019867;29;20066;-56
2022/04/23 02:50:26;;;;;;;1.88;1.10;;;21.60;70.70;;;;;;4014954;29;20195;-56
2022/04/23 02:52:28;;;;;;;1.77;1.20;;;21.60;70.70;;;;;;3995476;29;20175;-52
2022/04/23 02:54:30;;;;;;;1.40;1.00;;;21.60;70.60;;;;;;4021203;29;20550;-55
2022/04/23 02:56:33;;;;;;;2.00;1.27;;;21.70;70.60;;;;;;4024679;29;20423;-58
2022/04/23 02:58:35;;;;;;;1.98;1.00;;;21.70;70.60;;;;;;4014216;29;20133;-53
2022/04/23 03:00:40;;;;;;;1.52;1.00;;;21.70;70.50;;;;;;4005718;29;20056;-56
2022/04/23 03:02:42;;;;;;;1.60;0.90;;;21.70;70.40;;;;;;4022670;29;20060;-55
2022/04/23 03:04:44;;;;;;;1.17;0.85;;;21.70;71.10;;;;;;4029531;29;20048;-57
2022/04/23 03:06:47;;;;;;;1.67;0.90;;;21.70;70.40;;;;;;4027378;29;21868;-57
2022/04/23 03:08:49;;;;;;;2.30;1.10;;;21.70;70.30;;;;;;4022489;29;20430;-52
2022/04/23 03:10:51;;;;;;;1.63;1.00;;;21.70;70.30;;;;;;4023961;29;20445;-55
2022/04/23 03:12:55;;;;;;;1.80;1.00;;;21.80;70.20;;;;;;4031248;29;20047;-57
2022/04/23 03:14:58;;;;;;;1.35;0.82;;;21.80;70.20;;;;;;4021620;29;20055;-51
2022/04/23 03:17:00;;;;;;;1.02;0.60;;;21.80;70.10;;;;;;4005880;29;20135;-52
2022/04/23 03:19:02;;;;;;;1.05;0.65;;;21.80;70.20;;;;;;4028510;29;20067;-57
2022/04/23 03:21:04;;;;;;;2.08;0.98;;;21.80;70.10;;;;;;4029514;29;20170;-56
2022/04/23 03:23:06;;;;;;;1.33;0.63;;;21.80;70.10;;;;;;4007458;29;20801;-56
2022/04/23 03:25:11;;;;;;;2.17;0.98;;;21.80;70.10;;;;;;4027380;29;20434;-57
2022/04/23 03:27:13;;;;;;;1.33;0.77;;;21.80;70.10;;;;;;4032698;29;20169;-55
2022/04/23 03:29:15;;;;;;;1.45;0.75;;;21.90;70.00;;;;;;4023982;29;20288;-56
2022/04/23 03:31:17;;;;;;;1.10;0.75;;;21.90;70.00;;;;;;4023084;29;20051;-58
2022/04/23 03:33:19;;;;;;;1.85;0.77;;;21.90;70.00;;;;;;4033720;29;20066;-55
2022/04/23 03:35:22;;;;;;;0.75;0.60;;;22.00;69.90;;;;;;4024477;29;20056;-55
2022/04/23 03:37:24;;;;;;;0.95;0.60;;;22.00;69.80;;;;;;4024957;29;20056;-56
2022/04/23 03:39:26;;;;;;;0.63;0.63;;;22.00;69.80;;;;;;4032638;29;20693;-56
2022/04/23 03:41:28;;;;;;;0.93;0.60;;;22.00;69.70;;;;;;4029495;29;21810;-55
2022/04/23 03:43:32;;;;;;;1.27;0.65;;;22.10;69.70;;;;;;4024694;29;20051;-54
2022/04/23 03:45:36;;;;;;;1.10;0.70;;;22.10;69.50;;;;;;4028980;29;20501;-57
2022/04/23 03:47:43;;;;;;;1.88;0.80;;;22.20;69.50;;;;;;4033815;29;20056;-55
2022/04/23 03:49:46;;;;;;;1.48;0.75;;;22.20;69.40;;;;;;4027212;29;20191;-56
2022/04/23 03:51:48;;;;;;;;;;;22.20;69.30;;;;;;4020504;29;20107;-55
2022/04/23 03:53:51;;;;;;;1.27;0.52;;;22.30;69.30;;;;;;4026324;29;19926;-57
2022/04/23 03:55:53;;;;;;;0.85;0.50;;;22.30;69.10;;;;;;4033259;29;20055;-54
2022/04/23 03:57:55;;;;;;;0.70;0.50;;;22.40;69.00;;;;;;4026180;29;20059;-53
2022/04/23 03:59:57;;;;;;;1.13;0.65;;;22.40;68.90;;;;;;4023785;29;20517;-56
2022/04/23 04:02:04;;;;;;;0.75;0.60;;;22.50;68.80;;;;;;4028875;29;21203;-55
2022/04/23 04:04:06;;;;;;;1.40;0.73;;;22.50;68.80;;;;;;4027281;29;21043;-50
2022/04/23 04:06:09;;;;;;;0.80;0.43;;;22.50;68.50;;;;;;4005999;29;20048;-57
2022/04/23 04:08:12;;;;;;;0.55;0.50;;;22.60;68.50;;;;;;4023323;29;20155;-57
2022/04/23 04:10:16;;;;;;;0.88;0.50;;;22.60;68.40;;;;;;4029345;29;20055;-53
2022/04/23 04:12:18;;;;;;;0.40;0.32;;;22.60;68.50;;;;;;4027276;29;20094;-51
2022/04/23 04:14:21;;;;;;;0.75;0.50;;;22.60;68.30;;;;;;4022574;29;20637;-52
2022/04/23 04:16:23;;;;;;;1.75;0.73;;;22.70;68.30;;;;;;4026408;29;20486;-57
2022/04/23 04:18:26;;;;;;;0.90;0.40;;;22.70;68.20;;;;;;4030112;29;20090;-56
2022/04/23 04:20:29;;;;;;;1.52;0.60;;;22.80;68.00;;;;;;4020932;29;20071;-57
2022/04/23 04:22:30;;;;;;;;;;;22.90;67.90;;;;;;4019723;29;20079;-55
2022/04/23 04:24:33;;;;;;;0.90;0.50;;;22.90;67.70;;;;;;4029768;29;20060;-56
2022/04/23 04:26:35;;;;;;;0.38;0.38;;;23.00;67.60;;;;;;4003443;29;20064;-55
2022/04/23 04:28:37;;;;;;;1.25;0.45;;;23.00;67.40;;;;;;4021979;29;20051;-55
2022/04/23 04:32:59;;;;;;;0.30;0.30;;;23.00;67.60;;;;;;4008664;29;20749;-54
2022/04/23 04:35:02;;;;;;;0.22;0.22;;;23.00;67.50;;;;;;4018045;29;20060;-54
2022/04/23 04:37:09;;;;;;;0.95;0.63;;;23.00;67.30;;;;;;4029258;29;22360;-52
2022/04/23 04:39:12;;;;;;;0.85;0.50;;;23.20;67.30;;;;;;4026019;29;20894;-52
2022/04/23 04:41:14;;;;;;;0.88;0.40;;;23.20;67.70;;;;;;4027188;29;20056;-54
2022/04/23 04:43:17;;;;;;;3.00;0.45;;;23.30;66.90;;;;;;4035153;29;20579;-55
2022/04/23 04:45:19;;;;;;;1.65;0.77;;;23.30;66.70;;;;;;4027259;29;20153;-53
2022/04/23 04:47:21;;;;;;;1.15;0.50;;;23.40;66.60;;;;;;4025967;29;20055;-56
2022/04/23 04:49:23;;;;;;;0.50;0.50;;;23.50;66.40;;;;;;4035219;29;20148;-54
2022/04/23 04:51:26;;;;;;;0.85;0.50;;;23.50;66.20;;;;;;4031402;29;20059;-55
2022/04/23 04:53:28;;;;;;;1.40;0.60;;;23.60;66.10;;;;;;4026497;29;20473;-57
2022/04/23 04:55:33;;;;;;;1.33;0.60;;;23.60;65.80;;;;;;4022018;29;20059;-55
2022/04/23 04:57:35;;;;;;;1.10;0.55;;;23.70;66.00;;;;;;4028151;29;21053;-55
2022/04/23 04:59:38;;;;;;;0.90;0.50;;;23.80;65.80;;;;;;4002636;29;20605;-54
2022/04/23 05:01:40;;;;;;;;;;;23.80;65.60;;;;;;4014674;29;20209;-56
2022/04/23 05:03:43;;;;;;;0.63;0.50;;;23.90;65.60;;;;;;4022260;29;20399;-56
2022/04/23 05:05:45;;;;;;;0.40;0.40;;;23.90;65.40;;;;;;4029564;29;20610;-53
2022/04/23 05:07:47;;;;;;;0.85;0.57;;;24.00;65.30;;;;;;4022573;29;20055;-54
2022/04/23 05:09:49;;;;;;;0.30;0.30;;;24.00;65.30;;;;;;4022497;29;20556;-56
2022/04/23 05:11:52;;;;;;;2.28;0.88;;;24.00;65.10;;;;;;4016284;29;20216;-55
2022/04/23 05:13:54;;;;;;;0.68;0.43;;;24.10;65.00;;;;;;4025742;29;20090;-56
2022/04/23 05:15:56;;;;;;;1.27;0.52;;;24.10;64.90;;;;;;4008712;29;20064;-58
2022/04/23 05:17:59;;;;;;;0.55;0.35;;;24.10;65.00;;;;;;4034874;29;20099;-56
2022/04/23 05:20:01;;;;;;;1.02;0.43;;;24.10;65.00;;;;;;4009108;29;20215;-55
2022/04/23 05:22:03;;;;;;;0.68;0.50;;;24.00;65.00;;;;;;4021399;29;20079;-55
2022/04/23 05:24:06;;;;;;;0.83;0.63;;;24.00;65.20;;;;;;4031680;29;20071;-57
2022/04/23 05:26:09;;;;;;;1.48;0.60;;;24.00;65.40;;;;;;4030738;29;20314;-57
2022/04/23 05:28:11;;;;;;;0.65;0.40;;;23.90;65.40;;;;;;4024447;29;20135;-56
2022/04/23 05:30:13;;;;;;;0.52;0.45;;;23.90;65.50;;;;;;4012718;29;20415;-56
2022/04/23 05:32:15;;;;;;;0.52;0.38;;;23.80;65.60;;;;;;4035522;29;20642;-57
2022/04/23 05:34:17;;;;;;;1.73;0.50;;;23.80;66.20;;;;;;4028713;29;20146;-55
2022/04/23 05:36:19;;;;;;;0.32;0.32;;;23.80;65.70;;;;;;4028510;29;20050;-57
2022/04/23 05:38:23;;;;;;;0.40;0.40;;;23.80;65.70;;;;;;4042269;29;20071;-57
2022/04/23 05:40:25;;;;;;;1.08;0.50;;;23.80;65.80;;;;;;4035396;29;21031;-57
2022/04/23 05:42:27;;;;;;;1.05;0.50;;;23.70;65.80;;;;;;4032483;29;20830;-58
2022/04/23 05:44:30;;;;;;;0.52;0.35;;;23.70;65.90;;;;;;4039739;29;20114;-58
2022/04/23 05:46:32;;;;;;;0.73;0.40;;;23.60;65.80;;;;;;4025856;29;21912;-57
2022/04/23 05:48:37;;;;;;;0.40;0.40;;;23.60;65.90;;;;;;4015739;29;21039;-57
2022/04/23 05:50:39;;;;;;;1.02;0.30;;;23.60;66.60;;;;;;4034351;29;20063;-58
2022/04/23 05:56:16;;;;;;;0.98;0.90;;;23.70;66.00;;;;;;4079277;29;20058;-55
2022/04/23 06:01:39;;;;;;;2.05;1.08;;;23.70;65.70;;;;;;4049170;29;20082;-56
2022/04/23 06:07:57;;;;;;;6.30;2.28;;;23.70;65.70;;;;;;4008063;29;20075;-58
2022/04/23 06:13:20;;;;;;;3.45;1.88;;;23.80;65.80;;;;;;4010076;29;20094;-54
2022/04/23 06:15:22;;;;;;;4.45;1.98;;;23.80;65.70;;;;;;4029809;29;20882;-59
2022/04/23 06:17:27;;;;;;;3.40;1.90;;;23.80;65.70;;;;;;4016599;29;21401;-57
2022/04/23 06:19:31;;;;;;;4.88;2.10;;;23.80;65.70;;;;;;4008305;29;21730;-58
2022/04/23 06:21:33;;;;;;;3.13;1.50;;;23.80;65.80;;;;;;4008071;29;20160;-58
2022/04/23 06:23:36;;;;;;;4.63;1.88;;;23.70;65.70;;;;;;4014400;29;20904;-58
2022/04/23 06:25:38;;;;;;;2.95;1.63;;;23.70;65.80;;;;;;4032914;29;20059;-58
2022/04/23 06:27:40;;;;;;;3.40;1.67;;;23.70;65.80;;;;;;4024642;29;20489;-58
2022/04/23 06:29:43;;;;;;;4.30;1.60;;;23.70;65.90;;;;;;4027263;29;20056;-58
2022/04/23 06:31:45;;;;;;;2.15;1.30;;;23.70;66.00;;;;;;4032011;29;20125;-57
2022/04/23 06:33:47;;;;;;;2.78;1.50;;;23.70;66.00;;;;;;4021462;29;20062;-57
2022/04/23 06:35:49;;;;;;;2.78;1.52;;;23.70;65.90;;;;;;3999234;29;20687;-58
2022/04/23 06:37:51;;;;;;;4.55;1.63;;;23.70;65.90;;;;;;4027239;29;20575;-55
2022/04/23 06:39:53;;;;;;;4.60;1.63;;;23.70;65.90;;;;;;4019477;29;21602;-57
2022/04/23 06:41:56;;;;;;;2.03;1.10;;;23.70;65.90;;;;;;4003587;29;20463;-58
2022/04/23 06:43:58;;;;;;;3.90;1.05;;;23.70;65.90;;;;;;3993337;29;20083;-58
2022/04/23 06:46:00;;;;;;;3.35;1.30;;;23.70;65.90;;;;;;4010343;29;21797;-58
2022/04/23 06:48:06;;;;;;;2.63;0.98;;;23.80;65.80;;;;;;4019767;29;20067;-58
2022/04/23 06:50:09;;;;;;;2.20;1.00;;;24.00;65.20;;;;;;3985842;29;20060;-59
2022/04/23 06:52:11;;;;;;;3.15;1.08;;;23.90;65.20;;;;;;4027392;29;20052;-59
2022/04/23 06:54:13;;;;;;;3.10;1.50;;;24.00;65.20;;;;;;4019297;29;20095;-56
2022/04/23 06:56:15;;;;;;;1.88;1.35;;;24.00;65.30;;;;;;4018257;29;20167;-57
2022/04/23 06:58:17;;;;;;;1.80;1.38;;;24.10;65.00;;;;;;4024044;29;20071;-58
2022/04/23 07:00:22;;;;;;;1.73;0.95;;;24.20;64.50;;;;;;4007816;29;21338;-57
2022/04/23 07:02:24;;;;;;;2.00;0.93;;;24.30;64.10;;;;;;4002128;29;21304;-58
2022/04/23 07:04:27;;;;;;;2.28;0.85;;;24.20;64.40;;;;;;4002152;29;20144;-58
2022/04/23 07:06:29;;;;;;;1.55;0.82;;;24.00;64.70;;;;;;4011137;29;20052;-58
2022/04/23 07:08:32;;;;;;;1.95;0.80;;;23.90;65.10;;;;;;4019268;29;21948;-58
2022/04/23 07:10:34;;;;;;;2.10;0.50;;;23.80;65.20;;;;;;4018869;29;20820;-56
2022/04/23 07:12:37;;;;;;;0.93;0.60;;;23.70;65.50;;;;;;4023772;29;20997;-58
2022/04/23 07:14:39;;;;;;;1.45;0.73;;;23.60;65.70;;;;;;4023402;29;20179;-57
2022/04/23 07:16:42;;;;;;;1.08;0.52;;;23.60;65.90;;;;;;4017188;29;20135;-57
2022/04/23 07:18:44;;;;;;;2.70;0.90;;;23.50;66.00;;;;;;4016174;29;20699;-58
2022/04/23 07:20:46;;;;;;;1.65;0.60;;;23.50;66.20;;;;;;4016269;29;20467;-58
2022/04/23 07:25:11;;;;;;;1.05;0.68;;;23.40;66.20;;;;;;4010410;29;20047;-59
2022/04/23 07:27:13;;;;;;;0.43;0.40;;;23.40;66.40;;;;;;4000333;29;20075;-58
2022/04/23 07:29:15;;;;;;;3.40;0.73;;;23.30;66.30;;;;;;4000459;29;20277;-56
2022/04/23 07:31:17;;;;;;;1.75;0.77;;;23.30;66.40;;;;;;4026076;29;20055;-58
2022/04/23 07:38:23;;;;;;;1.77;0.52;;;23.30;66.50;;;;;;4006346;29;20151;-58
2022/04/23 07:40:25;;;;;;;0.75;0.55;;;23.30;66.60;;;;;;4022304;29;20062;-58
2022/04/23 07:42:28;;;;;;;0.70;0.38;;;23.20;66.60;;;;;;4006420;29;20060;-58
2022/04/23 07:44:30;;;;;;;0.30;0.30;;;23.20;66.50;;;;;;4030842;29;20063;-57
2022/04/23 07:46:32;;;;;;;0.88;0.43;;;23.20;66.50;;;;;;4008033;29;21668;-58
2022/04/23 07:48:34;;;;;;;0.95;0.47;;;23.20;66.50;;;;;;4023743;29;20880;-58
2022/04/23 07:50:39;;;;;;;0.60;0.40;;;23.20;66.50;;;;;;4009199;29;20073;-57
2022/04/23 07:52:41;;;;;;;1.27;0.70;;;23.20;66.60;;;;;;4027438;29;20056;-56
2022/04/23 07:54:44;;;;;;;0.77;0.40;;;23.20;66.60;;;;;;4019274;29;20711;-58
2022/04/23 07:56:46;;;;;;;1.05;0.60;;;23.20;66.60;;;;;;4020324;29;20099;-58
2022/04/23 07:58:48;;;;;;;0.38;0.35;;;23.10;66.50;;;;;;4030355;29;20060;-58
2022/04/23 08:00:50;;;;;;;2.28;0.57;;;23.10;66.60;;;;;;4006743;29;20826;-57
2022/04/23 08:02:52;;;;;;;0.63;0.50;;;23.10;66.60;;;;;;4020046;29;20070;-58
2022/04/23 08:04:54;;;;;;;0.63;0.40;;;23.10;66.70;;;;;;4028766;29;20110;-58
2022/04/23 08:06:56;;;;;;;1.23;0.50;;;23.10;66.70;;;;;;4023550;29;21250;-58
2022/04/23 08:08:59;;;;;;;1.45;0.50;;;23.10;66.70;;;;;;4022442;29;20846;-57
2022/04/23 08:11:01;;;;;;;0.90;0.47;;;23.00;66.60;;;;;;4023682;29;20063;-57
2022/04/23 08:13:03;;;;;;;0.98;0.50;;;23.00;66.70;;;;;;4012303;29;20064;-58
2022/04/23 08:15:06;;;;;;;0.40;0.40;;;23.00;66.70;;;;;;4022817;29;20544;-57
2022/04/23 08:17:08;;;;;;;0.35;0.35;;;23.00;66.70;;;;;;4023457;29;20170;-56
2022/04/23 08:19:10;;;;;;;1.05;0.50;;;23.00;66.70;;;;;;4031676;29;20135;-57
2022/04/23 08:21:12;;;;;;;0.50;0.50;;;23.00;67.30;;;;;;4021900;29;20066;-57
2022/04/23 08:23:16;;;;;;;1.15;0.45;;;23.00;66.70;;;;;;4023206;29;20056;-55
2022/04/23 08:25:18;;;;;;;0.80;0.52;;;23.00;66.70;;;;;;4018855;29;20063;-56
2022/04/23 08:27:20;;;;;;;0.85;0.50;;;23.00;66.70;;;;;;4002183;29;20109;-55
2022/04/23 08:31:42;;;;;;;0.73;0.50;;;22.90;66.70;;;;;;4018791;29;20060;-56
2022/04/23 08:34:02;;;;;;;1.77;0.60;;;22.90;66.70;;;;;;4015882;29;20503;-56
2022/04/23 08:36:05;;;;;;;1.05;0.63;;;22.90;66.70;;;;;;4018567;29;20067;-56
2022/04/23 08:38:08;;;;;;;0.75;0.60;;;22.90;66.70;;;;;;4030529;29;20096;-57
2022/04/23 08:40:12;;;;;;;1.00;0.60;;;22.90;66.20;;;;;;4018871;29;20449;-57
2022/04/23 08:42:17;;;;;;;0.95;0.68;;;22.90;66.80;;;;;;4039108;29;20594;-57
2022/04/23 08:44:21;;;;;;;1.30;0.70;;;22.90;66.80;;;;;;4016594;29;20051;-57
2022/04/23 08:46:27;;;;;;;1.17;0.77;;;22.90;66.80;;;;;;4018395;29;20071;-57
2022/04/23 08:48:38;;;;;;;0.82;0.70;;;22.90;66.80;;;;;;4019347;29;20102;-57
2022/04/23 08:50:43;;;;;;;1.23;0.80;;;22.90;66.80;;;;;;4034813;29;20070;-58
2022/04/23 08:52:52;;;;;;;1.15;0.75;;;22.80;66.90;;;;;;4039037;29;20079;-54
2022/04/23 08:54:56;;;;;;;1.33;0.65;;;22.80;66.80;;;;;;4023378;29;21013;-55
2022/04/23 08:56:58;;;;;;;1.73;0.80;;;22.80;66.90;;;;;;4033487;29;20079;-56
2022/04/23 08:59:01;;;;;;;1.33;0.73;;;22.80;66.90;;;;;;4015722;29;20091;-57
2022/04/23 09:01:03;;;;;;;0.73;0.57;;;22.80;66.90;;;;;;4035021;29;20067;-59
2022/04/23 09:03:05;;;;;;;1.27;0.73;;;22.80;66.90;;;;;;4009443;29;20155;-57
2022/04/23 09:05:08;;;;;;;1.10;0.63;;;22.70;66.90;;;;;;4033159;29;20903;-56
2022/04/23 09:07:26;;;;;;;0.93;0.63;;;22.70;67.00;;;;;;4023397;29;20088;-57
2022/04/23 09:09:29;;;;;;;0.73;0.60;;;22.70;67.10;;;;;;4032170;29;20711;-57
2022/04/23 09:11:35;;;;;;;1.35;0.77;;;22.70;67.00;;;;;;4042270;29;20420;-55
2022/04/23 09:13:37;;;;;;;1.10;0.70;;;22.70;67.10;;;;;;4038480;29;20410;-56
2022/04/23 09:25:35;;;;;;;1.25;0.82;;;22.60;66.70;;;;;;4040730;29;20059;-58
2022/04/23 09:27:43;;;;;;;1.25;0.70;;;22.60;67.30;;;;;;4034808;29;20111;-57
2022/04/23 09:29:58;;;;;;;0.52;0.52;;;22.60;67.20;;;;;;4023590;29;20764;-58
2022/04/23 09:32:12;;;;;;;1.52;0.70;;;22.60;67.30;;;;;;4035659;29;20142;-58
2022/04/23 09:34:22;;;;;;;1.10;0.80;;;22.60;67.30;;;;;;4035997;29;20926;-57
2022/04/23 09:36:24;;;;;;;1.48;0.95;;;22.60;67.40;;;;;;4034879;29;20782;-58
2022/04/23 09:38:28;;;;;;;0.82;0.80;;;22.60;67.40;;;;;;4023221;29;20674;-58
2022/04/23 09:40:30;;;;;;;1.63;0.93;;;22.60;67.50;;;;;;4034079;29;21610;-57
2022/04/23 09:42:32;;;;;;;1.98;0.70;;;22.50;67.50;;;;;;4033132;29;20063;-57
2022/04/23 09:44:34;;;;;;;1.10;0.73;;;22.50;67.50;;;;;;4043209;29;20110;-58
2022/04/23 09:46:46;;;;;;;1.85;0.80;;;22.50;67.60;;;;;;4020088;29;20083;-57
2022/04/23 09:49:03;;;;;;;0.73;0.60;;;22.50;67.60;;;;;;4036833;29;20060;-58
2022/04/23 09:51:26;;;;;;;1.35;0.70;;;22.50;67.70;;;;;;4043656;29;20167;-57
2022/04/23 09:53:29;;;;;;;2.15;0.98;;;22.50;67.70;;;;;;4036068;29;20055;-57
2022/04/23 09:55:31;;;;;;;1.02;0.70;;;22.50;67.80;;;;;;4023500;29;20079;-58
2022/04/23 09:57:33;;;;;;;0.60;0.60;;;22.50;67.80;;;;;;4019247;29;20107;-56
2022/04/23 09:59:35;;;;;;;0.75;0.70;;;22.50;67.90;;;;;;4034752;29;20178;-59
2022/04/23 10:01:37;;;;;;;1.38;0.85;;;22.50;67.90;;;;;;4025548;29;20066;-58
2022/04/23 10:03:44;;;;;;;0.75;0.60;;;22.40;67.90;;;;;;4038379;29;20063;-57
2022/04/23 10:05:50;;;;;;;1.15;0.70;;;22.40;67.90;;;;;;4037926;29;20527;-57
2022/04/23 10:07:57;;;;;;;0.65;0.65;;;22.40;68.00;;;;;;4021372;29;20140;-58
2022/04/23 10:10:03;;;;;;;0.60;0.60;;;22.40;68.00;;;;;;4038801;29;20052;-58
2022/04/23 10:12:08;;;;;;;1.20;0.75;;;22.40;68.00;;;;;;4028222;29;20278;-56
2022/04/23 10:14:13;;;;;;;0.75;0.70;;;22.40;68.10;;;;;;4042337;29;21921;-57
2022/04/23 10:16:16;;;;;;;1.38;0.80;;;22.40;68.10;;;;;;4040341;29;20527;-58
2022/04/23 10:18:18;;;;;;;1.50;1.00;;;22.30;68.10;;;;;;4037581;29;20063;-58
2022/04/23 10:20:22;;;;;;;1.75;0.70;;;22.40;68.20;;;;;;4046107;29;20055;-58
2022/04/23 10:22:54;;;;;;;0.93;0.80;;;22.40;68.30;;;;;;4022369;29;20068;-58
2022/04/23 10:25:24;;;;;;;1.42;1.15;;;22.30;68.90;;;;;;4015984;29;20071;-55
2022/04/23 10:27:28;;;;;;;1.02;0.77;;;22.30;68.30;;;;;;4038598;29;20058;-58
2022/04/23 10:29:31;;;;;;;1.52;0.80;;;22.30;68.30;;;;;;4033340;29;20983;-55
2022/04/23 10:31:33;;;;;;;1.40;0.82;;;22.30;68.30;;;;;;4025474;29;20772;-55
2022/04/23 10:37:43;;;;;;;1.80;1.15;;;22.30;68.40;;;;;;4083462;29;20387;-57
2022/04/23 10:40:15;;;;;;;1.20;0.80;;;22.20;68.30;;;;;;4077302;29;20142;-54
2022/04/23 10:42:18;;;;;;;1.85;1.02;;;22.20;68.40;;;;;;4064621;29;20067;-57
2022/04/23 10:44:23;;;;;;;;;;;22.20;68.50;;;;;;4044541;29;20447;-55
2022/04/23 10:46:40;;;;;;;1.13;0.70;;;22.20;68.50;;;;;;4045051;29;19923;-58
2022/04/23 10:48:45;;;;;;;1.75;1.02;;;22.20;68.50;;;;;;4024207;29;20133;-58
2022/04/23 10:51:19;;;;;;;1.42;1.05;;;22.20;68.50;;;;;;4042752;29;20579;-58
2022/04/23 10:53:48;;;;;;;1.10;0.98;;;22.20;68.50;;;;;;4027464;29;20135;-57
2022/04/23 10:56:13;;;;;;;1.20;1.10;;;22.20;68.60;;;;;;4040311;29;20089;-56
2022/04/23 10:58:22;;;;;;;1.52;0.77;;;22.20;68.60;;;;;;4020476;29;22325;-57
2022/04/23 11:00:27;;;;;;;1.05;0.85;;;22.10;68.60;;;;;;4028934;29;20983;-55
2022/04/23 11:02:33;;;;;;;1.45;1.00;;;22.10;68.60;;;;;;4008336;29;20063;-58
2022/04/23 11:12:14;;;;;;;1.42;0.77;;;22.10;68.70;;;;;;4011783;29;20060;-57
2022/04/23 11:12:33;;;;;;;1.52;1.05;;;22.10;68.70;;;;;;4030016;29;20063;-55
2022/04/23 11:14:45;;;;;;;2.05;1.20;;;22.10;68.70;;;;;;4030764;29;20349;-58
2022/04/23 11:16:55;;;;;;;2.25;1.35;;;22.10;68.70;;;;;;4028545;29;20079;-56
2022/04/23 11:18:59;;;;;;;2.70;1.20;;;22.10;68.70;;;;;;4013186;29;20052;-55
2022/04/23 11:21:16;;;;;;;1.10;0.88;;;22.10;68.70;;;;;;4023600;29;20058;-59
2022/04/23 11:23:19;;;;;;;1.90;1.20;;;22.10;68.70;;;;;;4015126;29;20946;-56
2022/04/23 11:25:23;;;;;;;2.15;1.40;;;22.10;68.70;;;;;;4043838;29;20182;-57
2022/04/23 11:27:37;;;;;;;2.00;1.20;;;22.10;68.70;;;;;;4039391;29;20056;-57
2022/04/23 11:29:40;;;;;;;1.63;1.10;;;22.10;68.70;;;;;;4037847;29;21687;-56
2022/04/23 11:31:52;;;;;;;1.98;1.42;;;22.00;68.70;;;;;;4033849;29;20602;-58
2022/04/23 11:33:59;;;;;;;1.13;1.02;;;22.00;68.70;;;;;;4017622;29;20048;-57
2022/04/23 11:36:02;;;;;;;2.28;1.23;;;22.00;68.70;;;;;;4001183;29;20175;-58